sensor_id;sensor_type;location;lat;lon;timestamp;P1;durP1;ratioP1;P2;durP2;ratioP2
17662;SDS011;8950;56.892;15.090;2022-11-02T00:02:20;13.57;;;9.82;;
17662;SDS011;8950;56.892;15.090;2022-11-02T00:04:46;14.50;;;9.82;;
17662;SDS011;8950;56.892;15.090;2022-11-02T00:07:13;14.27;;;9.73;;
17662;SDS011;8950;56.892;15.090;2022-11-02T00:09:40;15.25;;;9.55;;
17662;SDS011;8950;56.892;15.090;2022-11-02T00:12:06;15.32;;;9.57;;
17662;SDS011;8950;56.892;15.090;2022-11-02T00:14:34;13.25;;;8.75;;
17662;SDS011;8950;56.892;15.090;2022-11-02T00:17:00;14.13;;;9.50;;
17662;SDS011;8950;56.892;15.090;2022-11-02T00:19:27;15.13;;;9.50;;
17662;SDS011;8950;56.892;15.090;2022-11-02T00:21:54;15.68;;;9.40;;
17662;SDS011;8950;56.892;15.090;2022-11-02T00:24:22;15.45;;;9.65;;
17662;SDS011;8950;56.892;15.090;2022-11-02T00:26:49;14.13;;;9.77;;
17662;SDS011;8950;56.892;15.090;2022-11-02T00:29:15;14.10;;;9.25;;
17662;SDS011;8950;56.892;15.090;2022-11-02T00:31:43;11.95;;;9.18;;
17662;SDS011;8950;56.892;15.090;2022-11-02T00:34:10;13.57;;;8.68;;
17662;SDS011;8950;56.892;15.090;2022-11-02T00:36:36;12.50;;;8.82;;
17662;SDS011;8950;56.892;15.090;2022-11-02T00:39:03;11.27;;;8.35;;
17662;SDS011;8950;56.892;15.090;2022-11-02T00:41:29;12.65;;;9.20;;
17662;SDS011;8950;56.892;15.090;2022-11-02T00:43:55;14.10;;;8.82;;
17662;SDS011;8950;56.892;15.090;2022-11-02T00:46:22;15.15;;;9.07;;
17662;SDS011;8950;56.892;15.090;2022-11-02T00:48:50;12.38;;;8.48;;
17662;SDS011;8950;56.892;15.090;2022-11-02T00:51:16;16.38;;;9.27;;
17662;SDS011;8950;56.892;15.090;2022-11-02T00:53:42;15.15;;;8.50;;
17662;SDS011;8950;56.892;15.090;2022-11-02T00:56:09;12.95;;;8.10;;
17662;SDS011;8950;56.892;15.090;2022-11-02T00:58:35;11.35;;;8.02;;
17662;SDS011;8950;56.892;15.090;2022-11-02T01:01:03;15.23;;;8.43;;
17662;SDS011;8950;56.892;15.090;2022-11-02T01:03:29;11.85;;;8.10;;
17662;SDS011;8950;56.892;15.090;2022-11-02T01:05:57;11.32;;;8.10;;
17662;SDS011;8950;56.892;15.090;2022-11-02T01:08:23;15.93;;;8.23;;
17662;SDS011;8950;56.892;15.090;2022-11-02T01:10:50;11.95;;;7.03;;
17662;SDS011;8950;56.892;15.090;2022-11-02T01:13:16;11.77;;;8.18;;
17662;SDS011;8950;56.892;15.090;2022-11-02T01:15:43;12.38;;;7.63;;
17662;SDS011;8950;56.892;15.090;2022-11-02T01:18:10;15.27;;;8.18;;
17662;SDS011;8950;56.892;15.090;2022-11-02T01:20:36;12.98;;;7.65;;
17662;SDS011;8950;56.892;15.090;2022-11-02T01:23:04;12.20;;;7.18;;
17662;SDS011;8950;56.892;15.090;2022-11-02T01:25:30;11.77;;;7.25;;
17662;SDS011;8950;56.892;15.090;2022-11-02T01:27:57;10.02;;;7.22;;
17662;SDS011;8950;56.892;15.090;2022-11-02T01:30:23;13.20;;;7.22;;
17662;SDS011;8950;56.892;15.090;2022-11-02T01:32:50;14.10;;;6.90;;
17662;SDS011;8950;56.892;15.090;2022-11-02T01:35:16;13.32;;;7.28;;
17662;SDS011;8950;56.892;15.090;2022-11-02T01:37:43;13.77;;;7.78;;
17662;SDS011;8950;56.892;15.090;2022-11-02T01:40:11;11.77;;;6.72;;
17662;SDS011;8950;56.892;15.090;2022-11-02T01:42:37;11.45;;;6.90;;
17662;SDS011;8950;56.892;15.090;2022-11-02T01:45:04;12.80;;;6.65;;
17662;SDS011;8950;56.892;15.090;2022-11-02T01:47:32;11.05;;;6.68;;
17662;SDS011;8950;56.892;15.090;2022-11-02T01:50:02;15.00;;;5.80;;
17662;SDS011;8950;56.892;15.090;2022-11-02T01:52:30;11.10;;;6.22;;
17662;SDS011;8950;56.892;15.090;2022-11-02T01:54:58;10.93;;;6.22;;
17662;SDS011;8950;56.892;15.090;2022-11-02T01:57:28;9.73;;;5.72;;
17662;SDS011;8950;56.892;15.090;2022-11-02T01:59:57;12.65;;;6.25;;
17662;SDS011;8950;56.892;15.090;2022-11-02T02:02:26;10.25;;;6.30;;
17662;SDS011;8950;56.892;15.090;2022-11-02T02:04:53;12.52;;;6.03;;
17662;SDS011;8950;56.892;15.090;2022-11-02T02:07:22;8.40;;;5.43;;
17662;SDS011;8950;56.892;15.090;2022-11-02T02:09:49;9.23;;;5.40;;
17662;SDS011;8950;56.892;15.090;2022-11-02T02:12:16;10.52;;;5.80;;
17662;SDS011;8950;56.892;15.090;2022-11-02T02:14:45;10.85;;;5.97;;
17662;SDS011;8950;56.892;15.090;2022-11-02T02:17:15;10.60;;;5.72;;
17662;SDS011;8950;56.892;15.090;2022-11-02T02:19:43;11.15;;;5.30;;
17662;SDS011;8950;56.892;15.090;2022-11-02T02:22:17;10.98;;;5.22;;
17662;SDS011;8950;56.892;15.090;2022-11-02T02:24:49;8.82;;;5.10;;
17662;SDS011;8950;56.892;15.090;2022-11-02T02:27:17;9.88;;;5.28;;
17662;SDS011;8950;56.892;15.090;2022-11-02T02:29:50;10.07;;;5.30;;
17662;SDS011;8950;56.892;15.090;2022-11-02T02:32:18;11.30;;;5.40;;
17662;SDS011;8950;56.892;15.090;2022-11-02T02:34:47;6.97;;;4.60;;
17662;SDS011;8950;56.892;15.090;2022-11-02T02:37:16;9.07;;;5.15;;
17662;SDS011;8950;56.892;15.090;2022-11-02T02:39:43;8.40;;;4.93;;
17662;SDS011;8950;56.892;15.090;2022-11-02T02:42:14;8.02;;;4.53;;
17662;SDS011;8950;56.892;15.090;2022-11-02T02:44:45;10.85;;;5.00;;
17662;SDS011;8950;56.892;15.090;2022-11-02T02:47:16;13.77;;;4.95;;
17662;SDS011;8950;56.892;15.090;2022-11-02T02:49:47;7.85;;;4.80;;
17662;SDS011;8950;56.892;15.090;2022-11-02T02:52:15;9.25;;;4.85;;
17662;SDS011;8950;56.892;15.090;2022-11-02T02:54:43;7.80;;;4.60;;
17662;SDS011;8950;56.892;15.090;2022-11-02T02:57:11;10.00;;;4.82;;
17662;SDS011;8950;56.892;15.090;2022-11-02T02:59:39;10.40;;;4.90;;
17662;SDS011;8950;56.892;15.090;2022-11-02T03:02:06;11.52;;;4.50;;
17662;SDS011;8950;56.892;15.090;2022-11-02T03:04:35;8.07;;;4.55;;
17662;SDS011;8950;56.892;15.090;2022-11-02T03:07:01;8.73;;;4.53;;
17662;SDS011;8950;56.892;15.090;2022-11-02T03:09:28;11.57;;;4.93;;
17662;SDS011;8950;56.892;15.090;2022-11-02T03:11:59;10.32;;;4.45;;
17662;SDS011;8950;56.892;15.090;2022-11-02T03:14:31;9.38;;;4.40;;
17662;SDS011;8950;56.892;15.090;2022-11-02T03:17:04;9.23;;;3.97;;
17662;SDS011;8950;56.892;15.090;2022-11-02T03:19:37;8.02;;;4.53;;
17662;SDS011;8950;56.892;15.090;2022-11-02T03:22:07;7.22;;;4.10;;
17662;SDS011;8950;56.892;15.090;2022-11-02T03:24:38;8.07;;;4.22;;
17662;SDS011;8950;56.892;15.090;2022-11-02T03:27:09;11.30;;;4.65;;
17662;SDS011;8950;56.892;15.090;2022-11-02T03:29:41;9.13;;;4.28;;
17662;SDS011;8950;56.892;15.090;2022-11-02T03:32:11;7.60;;;3.95;;
17662;SDS011;8950;56.892;15.090;2022-11-02T03:34:40;8.25;;;4.10;;
17662;SDS011;8950;56.892;15.090;2022-11-02T03:37:10;8.20;;;4.00;;
17662;SDS011;8950;56.892;15.090;2022-11-02T03:39:37;11.32;;;3.88;;
17662;SDS011;8950;56.892;15.090;2022-11-02T03:42:06;7.80;;;4.22;;
17662;SDS011;8950;56.892;15.090;2022-11-02T03:44:36;8.10;;;3.85;;
17662;SDS011;8950;56.892;15.090;2022-11-02T03:47:03;9.48;;;4.03;;
17662;SDS011;8950;56.892;15.090;2022-11-02T03:49:31;6.38;;;3.75;;
17662;SDS011;8950;56.892;15.090;2022-11-02T03:52:00;8.52;;;3.97;;
17662;SDS011;8950;56.892;15.090;2022-11-02T03:54:32;10.45;;;4.07;;
17662;SDS011;8950;56.892;15.090;2022-11-02T03:57:03;8.82;;;4.10;;
17662;SDS011;8950;56.892;15.090;2022-11-02T03:59:32;9.10;;;4.07;;
17662;SDS011;8950;56.892;15.090;2022-11-02T04:01:59;7.10;;;3.97;;
17662;SDS011;8950;56.892;15.090;2022-11-02T04:04:27;9.20;;;4.03;;
17662;SDS011;8950;56.892;15.090;2022-11-02T04:06:53;9.18;;;3.40;;
17662;SDS011;8950;56.892;15.090;2022-11-02T04:09:22;7.28;;;3.92;;
17662;SDS011;8950;56.892;15.090;2022-11-02T04:11:49;6.72;;;3.35;;
17662;SDS011;8950;56.892;15.090;2022-11-02T04:14:34;7.38;;;3.90;;
17662;SDS011;8950;56.892;15.090;2022-11-02T04:17:03;6.85;;;3.80;;
17662;SDS011;8950;56.892;15.090;2022-11-02T04:19:47;10.13;;;4.03;;
17662;SDS011;8950;56.892;15.090;2022-11-02T04:22:14;7.78;;;3.85;;
17662;SDS011;8950;56.892;15.090;2022-11-02T04:24:59;5.68;;;3.25;;
17662;SDS011;8950;56.892;15.090;2022-11-02T04:27:42;9.77;;;3.55;;
17662;SDS011;8950;56.892;15.090;2022-11-02T04:30:09;7.03;;;3.85;;
17662;SDS011;8950;56.892;15.090;2022-11-02T04:32:36;7.30;;;3.55;;
17662;SDS011;8950;56.892;15.090;2022-11-02T04:35:20;10.68;;;3.33;;
17662;SDS011;8950;56.892;15.090;2022-11-02T04:37:46;7.88;;;3.55;;
17662;SDS011;8950;56.892;15.090;2022-11-02T04:40:32;5.85;;;3.55;;
17662;SDS011;8950;56.892;15.090;2022-11-02T04:42:58;7.18;;;3.75;;
17662;SDS011;8950;56.892;15.090;2022-11-02T04:45:25;9.23;;;4.15;;
17662;SDS011;8950;56.892;15.090;2022-11-02T04:47:51;7.50;;;3.30;;
17662;SDS011;8950;56.892;15.090;2022-11-02T04:50:17;6.47;;;3.60;;
17662;SDS011;8950;56.892;15.090;2022-11-02T04:52:44;7.82;;;3.50;;
17662;SDS011;8950;56.892;15.090;2022-11-02T04:55:10;8.20;;;3.38;;
17662;SDS011;8950;56.892;15.090;2022-11-02T04:57:38;6.60;;;3.35;;
17662;SDS011;8950;56.892;15.090;2022-11-02T05:00:09;7.38;;;3.83;;
17662;SDS011;8950;56.892;15.090;2022-11-02T05:02:36;6.72;;;3.38;;
17662;SDS011;8950;56.892;15.090;2022-11-02T05:05:02;9.48;;;3.33;;
17662;SDS011;8950;56.892;15.090;2022-11-02T05:07:30;7.63;;;3.42;;
17662;SDS011;8950;56.892;15.090;2022-11-02T05:09:56;8.52;;;3.03;;
17662;SDS011;8950;56.892;15.090;2022-11-02T05:12:23;9.60;;;3.28;;
17662;SDS011;8950;56.892;15.090;2022-11-02T05:14:50;9.55;;;3.70;;
17662;SDS011;8950;56.892;15.090;2022-11-02T05:17:17;8.13;;;3.67;;
17662;SDS011;8950;56.892;15.090;2022-11-02T05:19:43;7.20;;;3.55;;
17662;SDS011;8950;56.892;15.090;2022-11-02T05:22:10;9.73;;;3.65;;
17662;SDS011;8950;56.892;15.090;2022-11-02T05:24:37;7.93;;;3.40;;
17662;SDS011;8950;56.892;15.090;2022-11-02T05:27:03;6.28;;;3.45;;
17662;SDS011;8950;56.892;15.090;2022-11-02T05:29:29;9.38;;;3.33;;
17662;SDS011;8950;56.892;15.090;2022-11-02T05:31:58;8.18;;;3.25;;
17662;SDS011;8950;56.892;15.090;2022-11-02T05:34:25;9.15;;;3.17;;
17662;SDS011;8950;56.892;15.090;2022-11-02T05:36:51;9.20;;;3.55;;
17662;SDS011;8950;56.892;15.090;2022-11-02T05:39:18;7.20;;;3.50;;
17662;SDS011;8950;56.892;15.090;2022-11-02T05:41:44;7.35;;;3.45;;
17662;SDS011;8950;56.892;15.090;2022-11-02T05:44:11;6.95;;;3.20;;
17662;SDS011;8950;56.892;15.090;2022-11-02T05:46:37;5.88;;;3.38;;
17662;SDS011;8950;56.892;15.090;2022-11-02T05:49:05;8.63;;;3.22;;
17662;SDS011;8950;56.892;15.090;2022-11-02T05:51:32;8.13;;;3.35;;
17662;SDS011;8950;56.892;15.090;2022-11-02T05:53:58;5.65;;;3.15;;
17662;SDS011;8950;56.892;15.090;2022-11-02T05:56:25;6.30;;;3.40;;
17662;SDS011;8950;56.892;15.090;2022-11-02T05:58:52;8.77;;;3.70;;
17662;SDS011;8950;56.892;15.090;2022-11-02T06:01:19;7.80;;;3.90;;
17662;SDS011;8950;56.892;15.090;2022-11-02T06:03:45;7.53;;;3.30;;
17662;SDS011;8950;56.892;15.090;2022-11-02T06:06:13;6.82;;;3.28;;
17662;SDS011;8950;56.892;15.090;2022-11-02T06:08:40;6.57;;;3.63;;
17662;SDS011;8950;56.892;15.090;2022-11-02T06:11:06;8.45;;;3.30;;
17662;SDS011;8950;56.892;15.090;2022-11-02T06:13:34;6.55;;;3.35;;
17662;SDS011;8950;56.892;15.090;2022-11-02T06:16:00;8.20;;;4.18;;
17662;SDS011;8950;56.892;15.090;2022-11-02T06:18:27;7.85;;;3.00;;
17662;SDS011;8950;56.892;15.090;2022-11-02T06:20:55;7.63;;;3.20;;
17662;SDS011;8950;56.892;15.090;2022-11-02T06:23:23;7.95;;;3.42;;
17662;SDS011;8950;56.892;15.090;2022-11-02T06:25:50;3.78;;;3.05;;
17662;SDS011;8950;56.892;15.090;2022-11-02T06:28:16;7.97;;;3.25;;
17662;SDS011;8950;56.892;15.090;2022-11-02T06:30:43;7.95;;;3.65;;
17662;SDS011;8950;56.892;15.090;2022-11-02T06:33:09;6.30;;;3.67;;
17662;SDS011;8950;56.892;15.090;2022-11-02T06:35:35;5.57;;;3.50;;
17662;SDS011;8950;56.892;15.090;2022-11-02T06:38:02;6.60;;;3.50;;
17662;SDS011;8950;56.892;15.090;2022-11-02T06:40:29;6.82;;;3.92;;
17662;SDS011;8950;56.892;15.090;2022-11-02T06:42:56;5.88;;;3.67;;
17662;SDS011;8950;56.892;15.090;2022-11-02T06:45:22;6.32;;;4.05;;
17662;SDS011;8950;56.892;15.090;2022-11-02T06:47:49;8.77;;;3.70;;
17662;SDS011;8950;56.892;15.090;2022-11-02T06:50:16;7.90;;;3.70;;
17662;SDS011;8950;56.892;15.090;2022-11-02T06:52:42;7.55;;;4.03;;
17662;SDS011;8950;56.892;15.090;2022-11-02T06:55:09;5.97;;;3.30;;
17662;SDS011;8950;56.892;15.090;2022-11-02T06:57:37;6.30;;;3.17;;
17662;SDS011;8950;56.892;15.090;2022-11-02T07:00:04;8.35;;;3.72;;
17662;SDS011;8950;56.892;15.090;2022-11-02T07:02:31;5.22;;;3.10;;
17662;SDS011;8950;56.892;15.090;2022-11-02T07:04:57;4.95;;;3.25;;
17662;SDS011;8950;56.892;15.090;2022-11-02T07:07:24;5.65;;;3.03;;
17662;SDS011;8950;56.892;15.090;2022-11-02T07:09:50;6.78;;;3.30;;
17662;SDS011;8950;56.892;15.090;2022-11-02T07:12:17;6.00;;;3.20;;
17662;SDS011;8950;56.892;15.090;2022-11-02T07:14:45;6.85;;;4.05;;
17662;SDS011;8950;56.892;15.090;2022-11-02T07:17:11;6.57;;;3.58;;
17662;SDS011;8950;56.892;15.090;2022-11-02T07:19:38;5.75;;;3.38;;
17662;SDS011;8950;56.892;15.090;2022-11-02T07:22:04;6.63;;;3.90;;
17662;SDS011;8950;56.892;15.090;2022-11-02T07:24:31;5.43;;;3.30;;
17662;SDS011;8950;56.892;15.090;2022-11-02T07:26:57;5.93;;;3.20;;
17662;SDS011;8950;56.892;15.090;2022-11-02T07:29:23;5.15;;;3.45;;
17662;SDS011;8950;56.892;15.090;2022-11-02T07:31:51;5.85;;;3.20;;
17662;SDS011;8950;56.892;15.090;2022-11-02T07:34:17;6.63;;;3.45;;
17662;SDS011;8950;56.892;15.090;2022-11-02T07:36:44;4.95;;;3.30;;
17662;SDS011;8950;56.892;15.090;2022-11-02T07:39:10;6.88;;;3.67;;
17662;SDS011;8950;56.892;15.090;2022-11-02T07:41:37;8.10;;;3.60;;
17662;SDS011;8950;56.892;15.090;2022-11-02T07:44:03;5.85;;;3.58;;
17662;SDS011;8950;56.892;15.090;2022-11-02T07:46:30;4.97;;;3.40;;
17662;SDS011;8950;56.892;15.090;2022-11-02T07:48:58;6.82;;;3.83;;
17662;SDS011;8950;56.892;15.090;2022-11-02T07:51:24;5.05;;;3.30;;
17662;SDS011;8950;56.892;15.090;2022-11-02T07:53:51;5.47;;;4.10;;
17662;SDS011;8950;56.892;15.090;2022-11-02T07:56:17;5.07;;;3.70;;
17662;SDS011;8950;56.892;15.090;2022-11-02T07:58:43;4.35;;;3.70;;
17662;SDS011;8950;56.892;15.090;2022-11-02T08:01:10;5.65;;;4.15;;
17662;SDS011;8950;56.892;15.090;2022-11-02T08:03:37;5.80;;;4.55;;
17662;SDS011;8950;56.892;15.090;2022-11-02T08:06:05;5.68;;;3.80;;
17662;SDS011;8950;56.892;15.090;2022-11-02T08:08:31;4.40;;;4.00;;
17662;SDS011;8950;56.892;15.090;2022-11-02T08:11:02;6.78;;;3.40;;
17662;SDS011;8950;56.892;15.090;2022-11-02T08:13:28;8.35;;;4.10;;
17662;SDS011;8950;56.892;15.090;2022-11-02T08:15:55;6.03;;;3.72;;
17662;SDS011;8950;56.892;15.090;2022-11-02T08:18:22;8.23;;;4.30;;
17662;SDS011;8950;56.892;15.090;2022-11-02T08:20:48;6.88;;;4.55;;
17662;SDS011;8950;56.892;15.090;2022-11-02T08:23:17;5.60;;;4.40;;
17662;SDS011;8950;56.892;15.090;2022-11-02T08:25:45;6.30;;;4.30;;
17662;SDS011;8950;56.892;15.090;2022-11-02T08:28:12;8.65;;;4.43;;
17662;SDS011;8950;56.892;15.090;2022-11-02T08:30:38;7.35;;;4.32;;
17662;SDS011;8950;56.892;15.090;2022-11-02T08:33:05;9.65;;;5.07;;
17662;SDS011;8950;56.892;15.090;2022-11-02T08:35:32;7.25;;;4.95;;
17662;SDS011;8950;56.892;15.090;2022-11-02T08:38:01;6.60;;;5.05;;
17662;SDS011;8950;56.892;15.090;2022-11-02T08:40:29;7.80;;;4.93;;
17662;SDS011;8950;56.892;15.090;2022-11-02T08:42:56;7.72;;;5.55;;
17662;SDS011;8950;56.892;15.090;2022-11-02T08:45:23;8.02;;;5.30;;
17662;SDS011;8950;56.892;15.090;2022-11-02T08:47:50;8.30;;;4.93;;
17662;SDS011;8950;56.892;15.090;2022-11-02T08:50:16;5.13;;;4.63;;
17662;SDS011;8950;56.892;15.090;2022-11-02T08:52:42;7.53;;;5.05;;
17662;SDS011;8950;56.892;15.090;2022-11-02T08:55:09;6.72;;;5.25;;
17662;SDS011;8950;56.892;15.090;2022-11-02T08:57:44;8.05;;;5.20;;
17662;SDS011;8950;56.892;15.090;2022-11-02T09:00:11;5.53;;;4.82;;
17662;SDS011;8950;56.892;15.090;2022-11-02T09:02:37;7.43;;;5.72;;
17662;SDS011;8950;56.892;15.090;2022-11-02T09:05:04;5.85;;;4.82;;
17662;SDS011;8950;56.892;15.090;2022-11-02T09:07:30;8.82;;;5.70;;
17662;SDS011;8950;56.892;15.090;2022-11-02T09:09:57;7.03;;;5.35;;
17662;SDS011;8950;56.892;15.090;2022-11-02T09:12:23;7.22;;;4.85;;
17662;SDS011;8950;56.892;15.090;2022-11-02T09:14:51;8.10;;;5.03;;
17662;SDS011;8950;56.892;15.090;2022-11-02T09:17:18;9.68;;;5.40;;
17662;SDS011;8950;56.892;15.090;2022-11-02T09:19:44;7.00;;;4.85;;
17662;SDS011;8950;56.892;15.090;2022-11-02T09:22:11;7.97;;;4.88;;
17662;SDS011;8950;56.892;15.090;2022-11-02T09:24:37;7.80;;;5.20;;
17662;SDS011;8950;56.892;15.090;2022-11-02T09:27:04;9.15;;;5.38;;
17662;SDS011;8950;56.892;15.090;2022-11-02T09:29:32;7.00;;;4.72;;
17662;SDS011;8950;56.892;15.090;2022-11-02T09:31:59;7.57;;;4.53;;
17662;SDS011;8950;56.892;15.090;2022-11-02T09:34:26;6.70;;;4.22;;
17662;SDS011;8950;56.892;15.090;2022-11-02T09:36:52;5.18;;;3.88;;
17662;SDS011;8950;56.892;15.090;2022-11-02T09:39:19;8.88;;;4.30;;
17662;SDS011;8950;56.892;15.090;2022-11-02T09:41:49;7.55;;;3.63;;
17662;SDS011;8950;56.892;15.090;2022-11-02T09:44:17;8.73;;;4.10;;
17662;SDS011;8950;56.892;15.090;2022-11-02T09:46:46;6.13;;;3.38;;
17662;SDS011;8950;56.892;15.090;2022-11-02T09:49:14;7.18;;;3.53;;
17662;SDS011;8950;56.892;15.090;2022-11-02T09:51:41;6.93;;;3.78;;
17662;SDS011;8950;56.892;15.090;2022-11-02T09:54:11;5.60;;;3.30;;
17662;SDS011;8950;56.892;15.090;2022-11-02T09:56:39;9.65;;;3.65;;
17662;SDS011;8950;56.892;15.090;2022-11-02T09:59:10;7.00;;;3.47;;
17662;SDS011;8950;56.892;15.090;2022-11-02T10:01:40;8.60;;;3.47;;
17662;SDS011;8950;56.892;15.090;2022-11-02T10:04:17;8.35;;;3.60;;
17662;SDS011;8950;56.892;15.090;2022-11-02T10:06:47;6.88;;;3.40;;
17662;SDS011;8950;56.892;15.090;2022-11-02T10:09:17;7.55;;;3.33;;
17662;SDS011;8950;56.892;15.090;2022-11-02T10:11:49;5.45;;;3.38;;
17662;SDS011;8950;56.892;15.090;2022-11-02T10:14:18;5.10;;;3.17;;
17662;SDS011;8950;56.892;15.090;2022-11-02T10:16:46;7.68;;;3.15;;
17662;SDS011;8950;56.892;15.090;2022-11-02T10:19:17;8.45;;;3.60;;
17662;SDS011;8950;56.892;15.090;2022-11-02T10:21:45;8.07;;;3.15;;
17662;SDS011;8950;56.892;15.090;2022-11-02T10:24:16;7.22;;;3.08;;
17662;SDS011;8950;56.892;15.090;2022-11-02T10:26:45;6.90;;;2.85;;
17662;SDS011;8950;56.892;15.090;2022-11-02T10:29:14;6.90;;;3.25;;
17662;SDS011;8950;56.892;15.090;2022-11-02T10:31:40;6.97;;;2.88;;
17662;SDS011;8950;56.892;15.090;2022-11-02T10:34:11;5.47;;;3.05;;
17662;SDS011;8950;56.892;15.090;2022-11-02T10:36:43;7.32;;;3.08;;
17662;SDS011;8950;56.892;15.090;2022-11-02T10:39:15;8.68;;;3.15;;
17662;SDS011;8950;56.892;15.090;2022-11-02T10:41:58;8.35;;;3.08;;
17662;SDS011;8950;56.892;15.090;2022-11-02T10:44:31;8.30;;;3.20;;
17662;SDS011;8950;56.892;15.090;2022-11-02T10:47:04;7.80;;;2.95;;
17662;SDS011;8950;56.892;15.090;2022-11-02T10:52:22;6.38;;;3.55;;
17662;SDS011;8950;56.892;15.090;2022-11-02T10:54:49;6.43;;;2.80;;
17662;SDS011;8950;56.892;15.090;2022-11-02T10:57:17;5.07;;;2.67;;
17662;SDS011;8950;56.892;15.090;2022-11-02T10:59:49;9.07;;;3.10;;
17662;SDS011;8950;56.892;15.090;2022-11-02T11:02:36;5.47;;;2.88;;
17662;SDS011;8950;56.892;15.090;2022-11-02T11:05:10;7.90;;;3.28;;
17662;SDS011;8950;56.892;15.090;2022-11-02T11:07:41;10.90;;;3.22;;
17662;SDS011;8950;56.892;15.090;2022-11-02T11:10:12;6.70;;;3.08;;
17662;SDS011;8950;56.892;15.090;2022-11-02T11:12:39;5.82;;;2.53;;
17662;SDS011;8950;56.892;15.090;2022-11-02T11:15:06;6.20;;;3.20;;
17662;SDS011;8950;56.892;15.090;2022-11-02T11:17:41;8.65;;;2.95;;
17662;SDS011;8950;56.892;15.090;2022-11-02T11:20:20;6.38;;;3.13;;
17662;SDS011;8950;56.892;15.090;2022-11-02T11:23:05;6.72;;;2.70;;
17662;SDS011;8950;56.892;15.090;2022-11-02T11:25:32;6.60;;;2.92;;
17662;SDS011;8950;56.892;15.090;2022-11-02T11:27:58;7.88;;;3.13;;
17662;SDS011;8950;56.892;15.090;2022-11-02T11:30:26;10.88;;;2.92;;
17662;SDS011;8950;56.892;15.090;2022-11-02T11:32:53;4.57;;;2.95;;
17662;SDS011;8950;56.892;15.090;2022-11-02T11:35:20;7.00;;;2.78;;
17662;SDS011;8950;56.892;15.090;2022-11-02T11:37:47;6.60;;;2.58;;
17662;SDS011;8950;56.892;15.090;2022-11-02T11:40:16;6.75;;;2.47;;
17662;SDS011;8950;56.892;15.090;2022-11-02T11:42:44;6.22;;;2.88;;
17662;SDS011;8950;56.892;15.090;2022-11-02T11:45:13;6.45;;;2.88;;
17662;SDS011;8950;56.892;15.090;2022-11-02T11:47:42;6.15;;;2.90;;
17662;SDS011;8950;56.892;15.090;2022-11-02T11:50:11;6.85;;;2.75;;
17662;SDS011;8950;56.892;15.090;2022-11-02T11:52:38;3.95;;;2.78;;
17662;SDS011;8950;56.892;15.090;2022-11-02T11:55:19;8.30;;;2.97;;
17662;SDS011;8950;56.892;15.090;2022-11-02T11:57:48;6.68;;;2.70;;
17662;SDS011;8950;56.892;15.090;2022-11-02T12:00:29;7.35;;;2.78;;
17662;SDS011;8950;56.892;15.090;2022-11-02T12:03:00;6.97;;;2.85;;
17662;SDS011;8950;56.892;15.090;2022-11-02T12:05:27;6.05;;;2.60;;
17662;SDS011;8950;56.892;15.090;2022-11-02T12:08:06;5.22;;;2.67;;
17662;SDS011;8950;56.892;15.090;2022-11-02T12:10:39;5.60;;;2.60;;
17662;SDS011;8950;56.892;15.090;2022-11-02T12:13:09;5.55;;;2.58;;
17662;SDS011;8950;56.892;15.090;2022-11-02T12:15:47;8.02;;;3.38;;
17662;SDS011;8950;56.892;15.090;2022-11-02T12:21:20;7.45;;;2.67;;
17662;SDS011;8950;56.892;15.090;2022-11-02T12:23:52;9.90;;;3.58;;
17662;SDS011;8950;56.892;15.090;2022-11-02T12:26:24;5.88;;;2.45;;
17662;SDS011;8950;56.892;15.090;2022-11-02T12:28:55;10.90;;;2.95;;
17662;SDS011;8950;56.892;15.090;2022-11-02T12:31:26;5.70;;;2.80;;
17662;SDS011;8950;56.892;15.090;2022-11-02T12:36:57;6.07;;;3.13;;
17662;SDS011;8950;56.892;15.090;2022-11-02T12:39:30;7.90;;;3.28;;
17662;SDS011;8950;56.892;15.090;2022-11-02T12:42:03;7.65;;;3.63;;
17662;SDS011;8950;56.892;15.090;2022-11-02T12:44:34;8.57;;;3.20;;
17662;SDS011;8950;56.892;15.090;2022-11-02T12:47:04;7.03;;;3.05;;
17662;SDS011;8950;56.892;15.090;2022-11-02T12:49:35;5.97;;;3.15;;
17662;SDS011;8950;56.892;15.090;2022-11-02T12:52:06;6.25;;;2.92;;
17662;SDS011;8950;56.892;15.090;2022-11-02T12:54:35;7.00;;;3.08;;
17662;SDS011;8950;56.892;15.090;2022-11-02T12:57:10;8.80;;;3.13;;
17662;SDS011;8950;56.892;15.090;2022-11-02T12:59:37;5.40;;;3.00;;
17662;SDS011;8950;56.892;15.090;2022-11-02T13:02:09;7.05;;;3.15;;
17662;SDS011;8950;56.892;15.090;2022-11-02T13:04:38;8.70;;;3.50;;
17662;SDS011;8950;56.892;15.090;2022-11-02T13:07:11;8.00;;;3.28;;
17662;SDS011;8950;56.892;15.090;2022-11-02T13:09:39;6.32;;;2.70;;
17662;SDS011;8950;56.892;15.090;2022-11-02T13:12:06;5.38;;;3.08;;
17662;SDS011;8950;56.892;15.090;2022-11-02T13:14:38;7.03;;;3.00;;
17662;SDS011;8950;56.892;15.090;2022-11-02T13:17:06;7.55;;;3.10;;
17662;SDS011;8950;56.892;15.090;2022-11-02T13:19:40;7.10;;;2.95;;
17662;SDS011;8950;56.892;15.090;2022-11-02T13:22:09;7.22;;;2.83;;
17662;SDS011;8950;56.892;15.090;2022-11-02T13:24:37;5.90;;;2.70;;
17662;SDS011;8950;56.892;15.090;2022-11-02T13:27:05;5.07;;;2.70;;
17662;SDS011;8950;56.892;15.090;2022-11-02T13:29:34;5.47;;;3.00;;
17662;SDS011;8950;56.892;15.090;2022-11-02T13:32:05;5.55;;;2.97;;
17662;SDS011;8950;56.892;15.090;2022-11-02T13:34:35;7.45;;;2.92;;
17662;SDS011;8950;56.892;15.090;2022-11-02T13:37:04;4.18;;;2.60;;
17662;SDS011;8950;56.892;15.090;2022-11-02T13:39:34;5.68;;;2.70;;
17662;SDS011;8950;56.892;15.090;2022-11-02T13:42:19;4.68;;;2.60;;
17662;SDS011;8950;56.892;15.090;2022-11-02T13:45:04;8.00;;;2.50;;
17662;SDS011;8950;56.892;15.090;2022-11-02T13:47:45;3.88;;;2.35;;
17662;SDS011;8950;56.892;15.090;2022-11-02T13:50:16;7.38;;;2.90;;
17662;SDS011;8950;56.892;15.090;2022-11-02T13:52:44;5.40;;;2.53;;
17662;SDS011;8950;56.892;15.090;2022-11-02T13:55:14;6.70;;;2.70;;
17662;SDS011;8950;56.892;15.090;2022-11-02T13:57:43;4.75;;;2.70;;
17662;SDS011;8950;56.892;15.090;2022-11-02T14:00:25;4.68;;;2.50;;
17662;SDS011;8950;56.892;15.090;2022-11-02T14:02:55;7.35;;;2.50;;
17662;SDS011;8950;56.892;15.090;2022-11-02T14:05:24;6.68;;;3.20;;
17662;SDS011;8950;56.892;15.090;2022-11-02T14:07:52;5.82;;;2.53;;
17662;SDS011;8950;56.892;15.090;2022-11-02T14:10:19;5.45;;;2.50;;
17662;SDS011;8950;56.892;15.090;2022-11-02T14:12:46;8.50;;;2.78;;
17662;SDS011;8950;56.892;15.090;2022-11-02T14:18:15;6.15;;;2.55;;
17662;SDS011;8950;56.892;15.090;2022-11-02T14:20:51;10.65;;;2.50;;
17662;SDS011;8950;56.892;15.090;2022-11-02T14:23:36;5.70;;;2.80;;
17662;SDS011;8950;56.892;15.090;2022-11-02T14:26:03;6.47;;;2.70;;
17662;SDS011;8950;56.892;15.090;2022-11-02T14:28:30;4.78;;;2.20;;
17662;SDS011;8950;56.892;15.090;2022-11-02T14:30:57;4.65;;;2.70;;
17662;SDS011;8950;56.892;15.090;2022-11-02T14:33:33;5.95;;;2.38;;
17662;SDS011;8950;56.892;15.090;2022-11-02T14:36:04;5.13;;;2.70;;
17662;SDS011;8950;56.892;15.090;2022-11-02T14:38:45;6.35;;;2.50;;
17662;SDS011;8950;56.892;15.090;2022-11-02T14:41:18;7.82;;;2.80;;
17662;SDS011;8950;56.892;15.090;2022-11-02T14:43:53;6.68;;;2.60;;
17662;SDS011;8950;56.892;15.090;2022-11-02T14:46:28;7.78;;;3.00;;
17662;SDS011;8950;56.892;15.090;2022-11-02T14:48:59;6.13;;;2.67;;
17662;SDS011;8950;56.892;15.090;2022-11-02T14:51:27;7.10;;;2.83;;
17662;SDS011;8950;56.892;15.090;2022-11-02T14:53:56;5.93;;;2.80;;
17662;SDS011;8950;56.892;15.090;2022-11-02T14:56:23;6.47;;;2.42;;
17662;SDS011;8950;56.892;15.090;2022-11-02T14:58:50;7.70;;;2.80;;
17662;SDS011;8950;56.892;15.090;2022-11-02T15:01:19;4.72;;;2.53;;
17662;SDS011;8950;56.892;15.090;2022-11-02T15:03:45;5.70;;;2.75;;
17662;SDS011;8950;56.892;15.090;2022-11-02T15:06:15;5.22;;;2.67;;
17662;SDS011;8950;56.892;15.090;2022-11-02T15:08:51;5.80;;;2.40;;